sensor_id;sensor_type;location;lat;lon;timestamp;pressure;altitude;pressure_sealevel;temperature;humidity
51972;BME280;37991;49.662;10.060;2022-08-27T00:02:18;99005.50;;;18.47;100.00
51972;BME280;37991;49.662;10.060;2022-08-27T00:04:44;99003.00;;;18.37;100.00
51972;BME280;37991;49.662;10.060;2022-08-27T00:07:10;99006.34;;;18.39;100.00
51972;BME280;37991;49.662;10.060;2022-08-27T00:09:36;99009.00;;;18.39;100.00
51972;BME280;37991;49.662;10.060;2022-08-27T00:12:03;98998.22;;;18.32;100.00
51972;BME280;37991;49.662;10.060;2022-08-27T00:14:28;98999.06;;;18.33;100.00
51972;BME280;37991;49.662;10.060;2022-08-27T00:16:54;98998.06;;;18.26;100.00
51972;BME280;37991;49.662;10.060;2022-08-27T00:19:20;99002.53;;;18.25;100.00
51972;BME280;37991;49.662;10.060;2022-08-27T00:21:46;98998.88;;;18.26;100.00
51972;BME280;37991;49.662;10.060;2022-08-27T00:24:11;99004.53;;;18.31;100.00
51972;BME280;37991;49.662;10.060;2022-08-27T00:26:37;99004.00;;;18.28;100.00
51972;BME280;37991;49.662;10.060;2022-08-27T00:29:03;99002.69;;;18.24;100.00
51972;BME280;37991;49.662;10.060;2022-08-27T00:31:28;99000.22;;;18.22;100.00
51972;BME280;37991;49.662;10.060;2022-08-27T00:33:54;99008.00;;;18.16;100.00
51972;BME280;37991;49.662;10.060;2022-08-27T00:36:20;99000.00;;;18.07;100.00
51972;BME280;37991;49.662;10.060;2022-08-27T00:38:46;99001.50;;;18.02;100.00
51972;BME280;37991;49.662;10.060;2022-08-27T00:41:12;99000.69;;;18.09;100.00
51972;BME280;37991;49.662;10.060;2022-08-27T00:43:51;99007.78;;;18.09;100.00
51972;BME280;37991;49.662;10.060;2022-08-27T00:46:28;99005.13;;;18.09;100.00
51972;BME280;37991;49.662;10.060;2022-08-27T00:48:59;99006.16;;;18.08;100.00
51972;BME280;37991;49.662;10.060;2022-08-27T00:51:28;99014.28;;;18.06;100.00
51972;BME280;37991;49.662;10.060;2022-08-27T00:53:56;99019.56;;;18.06;100.00
51972;BME280;37991;49.662;10.060;2022-08-27T00:56:28;99012.59;;;18.05;100.00
51972;BME280;37991;49.662;10.060;2022-08-27T00:58:56;99020.22;;;18.00;100.00
51972;BME280;37991;49.662;10.060;2022-08-27T01:01:28;99019.19;;;17.93;100.00
51972;BME280;37991;49.662;10.060;2022-08-27T01:03:57;99015.06;;;17.99;100.00
51972;BME280;37991;49.662;10.060;2022-08-27T01:06:25;99017.56;;;18.00;100.00
51972;BME280;37991;49.662;10.060;2022-08-27T01:08:59;99016.41;;;17.95;100.00
51972;BME280;37991;49.662;10.060;2022-08-27T01:11:26;99017.41;;;17.94;100.00
51972;BME280;37991;49.662;10.060;2022-08-27T01:13:52;99023.66;;;17.93;100.00
51972;BME280;37991;49.662;10.060;2022-08-27T01:16:22;99018.69;;;17.89;100.00
51972;BME280;37991;49.662;10.060;2022-08-27T01:18:49;99020.19;;;17.92;100.00
51972;BME280;37991;49.662;10.060;2022-08-27T01:21:25;99016.72;;;17.92;100.00
51972;BME280;37991;49.662;10.060;2022-08-27T01:24:01;99020.38;;;17.91;100.00
51972;BME280;37991;49.662;10.060;2022-08-27T01:26:28;99020.38;;;17.91;100.00
51972;BME280;37991;49.662;10.060;2022-08-27T01:28:54;99016.53;;;17.85;100.00
51972;BME280;37991;49.662;10.060;2022-08-27T01:31:21;99017.84;;;17.81;100.00
51972;BME280;37991;49.662;10.060;2022-08-27T01:33:58;99014.03;;;17.83;100.00
51972;BME280;37991;49.662;10.060;2022-08-27T01:36:24;99016.69;;;17.83;100.00
51972;BME280;37991;49.662;10.060;2022-08-27T01:38:49;99013.72;;;17.86;100.00
51972;BME280;37991;49.662;10.060;2022-08-27T01:41:14;99007.75;;;17.84;100.00
51972;BME280;37991;49.662;10.060;2022-08-27T01:43:40;99006.09;;;17.83;100.00
51972;BME280;37991;49.662;10.060;2022-08-27T01:46:05;99006.41;;;17.80;100.00
51972;BME280;37991;49.662;10.060;2022-08-27T01:48:30;99001.56;;;17.76;100.00
51972;BME280;37991;49.662;10.060;2022-08-27T01:50:56;99008.41;;;17.78;100.00
51972;BME280;37991;49.662;10.060;2022-08-27T01:53:23;99008.41;;;17.78;100.00
51972;BME280;37991;49.662;10.060;2022-08-27T01:55:50;99012.56;;;17.81;100.00
51972;BME280;37991;49.662;10.060;2022-08-27T01:58:18;99011.38;;;17.83;100.00
51972;BME280;37991;49.662;10.060;2022-08-27T02:00:46;99006.94;;;17.84;100.00
51972;BME280;37991;49.662;10.060;2022-08-27T02:03:13;99009.91;;;17.81;100.00
51972;BME280;37991;49.662;10.060;2022-08-27T02:05:44;99002.28;;;17.78;100.00
51972;BME280;37991;49.662;10.060;2022-08-27T02:08:10;98999.75;;;17.76;100.00
51972;BME280;37991;49.662;10.060;2022-08-27T02:10:37;98998.81;;;17.77;100.00
51972;BME280;37991;49.662;10.060;2022-08-27T02:13:04;99003.41;;;17.75;100.00
51972;BME280;37991;49.662;10.060;2022-08-27T02:15:32;99003.72;;;17.72;100.00
51972;BME280;37991;49.662;10.060;2022-08-27T02:17:58;98995.97;;;17.79;100.00
51972;BME280;37991;49.662;10.060;2022-08-27T02:20:24;99002.41;;;17.76;100.00
51972;BME280;37991;49.662;10.060;2022-08-27T02:22:50;98992.31;;;17.72;100.00
51972;BME280;37991;49.662;10.060;2022-08-27T02:25:16;98995.91;;;17.71;100.00
51972;BME280;37991;49.662;10.060;2022-08-27T02:27:44;98994.28;;;17.70;100.00
51972;BME280;37991;49.662;10.060;2022-08-27T02:30:12;98989.97;;;17.69;100.00
51972;BME280;37991;49.662;10.060;2022-08-27T02:32:38;98988.81;;;17.71;100.00
51972;BME280;37991;49.662;10.060;2022-08-27T02:35:04;98994.63;;;17.75;100.00
51972;BME280;37991;49.662;10.060;2022-08-27T02:37:30;98994.44;;;17.76;100.00
51972;BME280;37991;49.662;10.060;2022-08-27T02:39:56;98985.31;;;17.71;100.00
51972;BME280;37991;49.662;10.060;2022-08-27T02:42:21;98987.22;;;17.78;100.00
51972;BME280;37991;49.662;10.060;2022-08-27T02:44:47;98983.56;;;17.79;100.00
51972;BME280;37991;49.662;10.060;2022-08-27T02:47:12;98985.31;;;17.71;100.00
51972;BME280;37991;49.662;10.060;2022-08-27T02:49:38;98979.25;;;17.78;100.00
51972;BME280;37991;49.662;10.060;2022-08-27T02:52:04;98984.56;;;17.78;100.00
51972;BME280;37991;49.662;10.060;2022-08-27T02:54:29;98985.69;;;17.76;100.00
51972;BME280;37991;49.662;10.060;2022-08-27T02:56:55;98984.50;;;17.70;100.00
51972;BME280;37991;49.662;10.060;2022-08-27T02:59:21;98981.22;;;17.76;100.00
51972;BME280;37991;49.662;10.060;2022-08-27T03:01:46;98986.50;;;17.76;100.00
51972;BME280;37991;49.662;10.060;2022-08-27T03:04:12;98981.84;;;17.70;100.00
51972;BME280;37991;49.662;10.060;2022-08-27T03:06:38;98979.88;;;17.72;100.00
51972;BME280;37991;49.662;10.060;2022-08-27T03:09:03;98979.56;;;17.75;100.00
51972;BME280;37991;49.662;10.060;2022-08-27T03:11:29;98973.25;;;17.76;100.00
51972;BME280;37991;49.662;10.060;2022-08-27T03:13:56;98979.41;;;17.77;100.00
51972;BME280;37991;49.662;10.060;2022-08-27T03:16:23;98977.63;;;17.77;100.00
51972;BME280;37991;49.662;10.060;2022-08-27T03:18:49;98976.91;;;17.75;100.00
51972;BME280;37991;49.662;10.060;2022-08-27T03:21:21;98981.09;;;17.78;100.00
51972;BME280;37991;49.662;10.060;2022-08-27T03:23:47;98978.75;;;17.83;100.00
51972;BME280;37991;49.662;10.060;2022-08-27T03:26:13;98973.16;;;17.78;100.00
51972;BME280;37991;49.662;10.060;2022-08-27T03:28:39;98984.84;;;17.75;100.00
51972;BME280;37991;49.662;10.060;2022-08-27T03:31:07;98971.59;;;17.75;100.00
51972;BME280;37991;49.662;10.060;2022-08-27T03:33:38;98978.06;;;17.73;100.00
51972;BME280;37991;49.662;10.060;2022-08-27T03:36:05;98978.06;;;17.73;100.00
51972;BME280;37991;49.662;10.060;2022-08-27T03:38:32;98982.75;;;17.79;100.00
51972;BME280;37991;49.662;10.060;2022-08-27T03:40:57;98983.09;;;17.84;100.00
51972;BME280;37991;49.662;10.060;2022-08-27T03:43:23;98977.16;;;17.90;100.00
51972;BME280;37991;49.662;10.060;2022-08-27T03:45:50;98973.31;;;17.84;100.00
51972;BME280;37991;49.662;10.060;2022-08-27T03:48:16;98974.66;;;17.88;100.00
51972;BME280;37991;49.662;10.060;2022-08-27T03:50:45;98982.09;;;17.93;100.00
51972;BME280;37991;49.662;10.060;2022-08-27T03:53:12;98973.81;;;17.88;100.00
51972;BME280;37991;49.662;10.060;2022-08-27T03:55:38;98971.31;;;17.86;100.00
51972;BME280;37991;49.662;10.060;2022-08-27T03:58:06;98978.63;;;17.93;100.00
51972;BME280;37991;49.662;10.060;2022-08-27T04:00:31;98969.03;;;17.92;100.00
51972;BME280;37991;49.662;10.060;2022-08-27T04:02:57;98975.00;;;17.94;100.00
51972;BME280;37991;49.662;10.060;2022-08-27T04:05:22;98977.16;;;17.98;100.00
51972;BME280;37991;49.662;10.060;2022-08-27T04:07:48;98978.66;;;18.01;100.00
51972;BME280;37991;49.662;10.060;2022-08-27T04:10:15;98975.16;;;18.00;100.00
51972;BME280;37991;49.662;10.060;2022-08-27T04:12:41;98977.63;;;18.02;100.00
51972;BME280;37991;49.662;10.060;2022-08-27T04:15:08;98980.16;;;18.03;100.00
51972;BME280;37991;49.662;10.060;2022-08-27T04:17:34;98974.66;;;18.05;100.00
51972;BME280;37991;49.662;10.060;2022-08-27T04:20:00;98980.47;;;18.08;100.00
51972;BME280;37991;49.662;10.060;2022-08-27T04:22:27;98987.91;;;18.05;100.00
51972;BME280;37991;49.662;10.060;2022-08-27T04:24:53;98986.25;;;17.96;100.00
51972;BME280;37991;49.662;10.060;2022-08-27T04:27:19;98985.44;;;18.03;100.00
51972;BME280;37991;49.662;10.060;2022-08-27T04:29:45;98993.22;;;18.05;100.00
51972;BME280;37991;49.662;10.060;2022-08-27T04:32:11;98989.56;;;18.06;100.00
51972;BME280;37991;49.662;10.060;2022-08-27T04:34:37;98993.56;;;18.10;100.00
51972;BME280;37991;49.662;10.060;2022-08-27T04:37:03;98992.22;;;18.06;100.00
51972;BME280;37991;49.662;10.060;2022-08-27T04:39:30;98991.75;;;18.10;100.00
51972;BME280;37991;49.662;10.060;2022-08-27T04:41:57;98998.03;;;18.18;100.00
51972;BME280;37991;49.662;10.060;2022-08-27T04:44:29;98998.53;;;18.13;100.00
51972;BME280;37991;49.662;10.060;2022-08-27T04:46:58;98999.53;;;18.20;100.00
51972;BME280;37991;49.662;10.060;2022-08-27T04:49:24;98996.56;;;18.23;100.00
51972;BME280;37991;49.662;10.060;2022-08-27T04:51:49;98992.25;;;18.22;100.00
51972;BME280;37991;49.662;10.060;2022-08-27T04:54:15;99001.19;;;18.21;100.00
51972;BME280;37991;49.662;10.060;2022-08-27T04:56:41;99005.84;;;18.19;100.00
51972;BME280;37991;49.662;10.060;2022-08-27T04:59:08;99005.00;;;18.19;100.00
51972;BME280;37991;49.662;10.060;2022-08-27T05:01:34;99006.00;;;18.26;100.00
51972;BME280;37991;49.662;10.060;2022-08-27T05:04:00;99004.19;;;18.26;100.00
51972;BME280;37991;49.662;10.060;2022-08-27T05:06:26;99000.53;;;18.27;100.00
51972;BME280;37991;49.662;10.060;2022-08-27T05:08:52;99009.81;;;18.23;100.00
51972;BME280;37991;49.662;10.060;2022-08-27T05:11:19;99005.84;;;18.27;100.00
51972;BME280;37991;49.662;10.060;2022-08-27T05:13:46;99000.06;;;18.32;100.00
51972;BME280;37991;49.662;10.060;2022-08-27T05:16:15;98997.56;;;18.30;100.00
51972;BME280;37991;49.662;10.060;2022-08-27T05:18:42;98999.06;;;18.33;100.00
51972;BME280;37991;49.662;10.060;2022-08-27T05:21:08;99000.19;;;18.30;100.00
51972;BME280;37991;49.662;10.060;2022-08-27T05:23:34;99005.34;;;18.32;100.00
51972;BME280;37991;49.662;10.060;2022-08-27T05:25:59;99009.47;;;18.34;100.00
51972;BME280;37991;49.662;10.060;2022-08-27T05:28:27;99011.31;;;18.34;100.00
51972;BME280;37991;49.662;10.060;2022-08-27T05:30:55;99008.66;;;18.34;100.00
51972;BME280;37991;49.662;10.060;2022-08-27T05:33:26;99009.31;;;18.36;100.00
51972;BME280;37991;49.662;10.060;2022-08-27T05:35:55;99007.69;;;18.35;100.00
51972;BME280;37991;49.662;10.060;2022-08-27T05:38:22;99013.81;;;18.35;100.00
51972;BME280;37991;49.662;10.060;2022-08-27T05:40:49;99006.19;;;18.32;100.00
51972;BME280;37991;49.662;10.060;2022-08-27T05:43:18;99008.97;;;18.31;100.00
51972;BME280;37991;49.662;10.060;2022-08-27T05:45:45;99009.84;;;18.31;100.00
51972;BME280;37991;49.662;10.060;2022-08-27T05:48:12;99006.81;;;18.34;100.00
51972;BME280;37991;49.662;10.060;2022-08-27T05:50:40;99018.59;;;18.40;100.00
51972;BME280;37991;49.662;10.060;2022-08-27T05:53:06;99019.75;;;18.38;100.00
51972;BME280;37991;49.662;10.060;2022-08-27T05:55:41;99018.28;;;18.35;100.00
51972;BME280;37991;49.662;10.060;2022-08-27T05:58:09;99018.94;;;18.29;100.00
51972;BME280;37991;49.662;10.060;2022-08-27T06:00:55;99025.88;;;18.30;100.00
51972;BME280;37991;49.662;10.060;2022-08-27T06:03:35;99024.91;;;18.23;100.00
51972;BME280;37991;49.662;10.060;2022-08-27T06:06:09;99036.34;;;18.31;100.00
51972;BME280;37991;49.662;10.060;2022-08-27T06:08:36;99036.66;;;18.28;100.00
51972;BME280;37991;49.662;10.060;2022-08-27T06:11:03;99026.06;;;18.28;100.00
51972;BME280;37991;49.662;10.060;2022-08-27T06:13:30;99029.53;;;18.29;100.00
51972;BME280;37991;49.662;10.060;2022-08-27T06:16:04;99031.53;;;18.35;100.00
51972;BME280;37991;49.662;10.060;2022-08-27T06:18:35;99030.69;;;18.34;100.00
51972;BME280;37991;49.662;10.060;2022-08-27T06:21:02;99027.38;;;18.32;100.00
51972;BME280;37991;49.662;10.060;2022-08-27T06:23:27;99032.50;;;18.34;100.00
51972;BME280;37991;49.662;10.060;2022-08-27T06:25:54;99034.00;;;18.36;100.00
51972;BME280;37991;49.662;10.060;2022-08-27T06:28:20;99034.00;;;18.36;100.00
51972;BME280;37991;49.662;10.060;2022-08-27T06:30:47;99037.16;;;18.40;100.00
51972;BME280;37991;49.662;10.060;2022-08-27T06:33:13;99037.50;;;18.37;100.00
51972;BME280;37991;49.662;10.060;2022-08-27T06:35:38;99044.16;;;18.41;100.00
51972;BME280;37991;49.662;10.060;2022-08-27T06:38:04;99047.63;;;18.42;100.00
51972;BME280;37991;49.662;10.060;2022-08-27T06:40:29;99051.41;;;18.47;100.00
51972;BME280;37991;49.662;10.060;2022-08-27T06:42:55;99054.41;;;18.44;100.00
51972;BME280;37991;49.662;10.060;2022-08-27T06:45:20;99051.78;;;18.44;100.00
51972;BME280;37991;49.662;10.060;2022-08-27T06:47:46;99058.72;;;18.45;100.00
51972;BME280;37991;49.662;10.060;2022-08-27T06:50:11;99059.19;;;18.41;100.00
51972;BME280;37991;49.662;10.060;2022-08-27T06:52:37;99068.50;;;18.45;100.00
51972;BME280;37991;49.662;10.060;2022-08-27T06:55:03;99068.84;;;18.42;100.00
51972;BME280;37991;49.662;10.060;2022-08-27T06:57:28;99068.84;;;18.42;100.00
51972;BME280;37991;49.662;10.060;2022-08-27T06:59:54;99074.97;;;18.42;100.00
51972;BME280;37991;49.662;10.060;2022-08-27T07:02:19;99071.81;;;18.47;100.00
51972;BME280;37991;49.662;10.060;2022-08-27T07:04:44;99074.31;;;18.48;100.00
51972;BME280;37991;49.662;10.060;2022-08-27T07:07:11;99080.78;;;18.54;100.00
51972;BME280;37991;49.662;10.060;2022-08-27T07:09:37;99084.41;;;18.53;100.00
51972;BME280;37991;49.662;10.060;2022-08-27T07:12:02;99081.09;;;18.59;100.00
51972;BME280;37991;49.662;10.060;2022-08-27T07:14:28;99084.44;;;18.61;100.00
51972;BME280;37991;49.662;10.060;2022-08-27T07:16:54;99083.09;;;18.65;100.00
51972;BME280;37991;49.662;10.060;2022-08-27T07:19:20;99086.09;;;18.70;100.00
51972;BME280;37991;49.662;10.060;2022-08-27T07:21:45;99076.84;;;18.83;100.00
51972;BME280;37991;49.662;10.060;2022-08-27T07:24:11;99082.47;;;18.88;100.00
51972;BME280;37991;49.662;10.060;2022-08-27T07:26:38;99081.97;;;18.92;100.00
51972;BME280;37991;49.662;10.060;2022-08-27T07:29:07;99084.31;;;18.95;100.00
51972;BME280;37991;49.662;10.060;2022-08-27T07:31:33;99081.13;;;19.08;100.00
51972;BME280;37991;49.662;10.060;2022-08-27T07:34:04;99068.19;;;19.05;100.00
51972;BME280;37991;49.662;10.060;2022-08-27T07:36:30;99069.50;;;19.09;100.00
51972;BME280;37991;49.662;10.060;2022-08-27T07:38:56;99068.84;;;19.07;100.00
51972;BME280;37991;49.662;10.060;2022-08-27T07:41:21;99065.03;;;19.18;100.00
51972;BME280;37991;49.662;10.060;2022-08-27T07:43:46;99074.31;;;19.22;100.00
51972;BME280;37991;49.662;10.060;2022-08-27T07:46:30;99065.47;;;19.29;100.00
51972;BME280;37991;49.662;10.060;2022-08-27T07:48:56;99074.78;;;19.34;100.00
51972;BME280;37991;49.662;10.060;2022-08-27T07:51:24;99070.09;;;19.44;100.00
51972;BME280;37991;49.662;10.060;2022-08-27T07:53:49;99062.63;;;19.47;100.00
51972;BME280;37991;49.662;10.060;2022-08-27T07:56:15;99058.59;;;19.51;100.00
51972;BME280;37991;49.662;10.060;2022-08-27T07:58:41;99064.41;;;19.55;100.00
51972;BME280;37991;49.662;10.060;2022-08-27T08:01:07;99062.75;;;19.54;100.00
51972;BME280;37991;49.662;10.060;2022-08-27T08:03:33;99068.41;;;19.59;100.00
51972;BME280;37991;49.662;10.060;2022-08-27T08:06:08;99073.22;;;19.64;100.00
51972;BME280;37991;49.662;10.060;2022-08-27T08:08:34;99075.50;;;19.75;100.00
51972;BME280;37991;49.662;10.060;2022-08-27T08:11:00;99074.44;;;19.84;100.00
51972;BME280;37991;49.662;10.060;2022-08-27T08:13:27;99069.09;;;19.92;100.00
51972;BME280;37991;49.662;10.060;2022-08-27T08:15:52;99074.69;;;20.06;100.00
51972;BME280;37991;49.662;10.060;2022-08-27T08:18:17;99080.13;;;20.12;100.00
51972;BME280;37991;49.662;10.060;2022-08-27T08:20:43;99088.69;;;20.23;100.00
51972;BME280;37991;49.662;10.060;2022-08-27T08:23:09;99082.19;;;20.25;100.00
51972;BME280;37991;49.662;10.060;2022-08-27T08:25:34;99081.38;;;20.25;100.00
51972;BME280;37991;49.662;10.060;2022-08-27T08:27:59;99095.81;;;20.30;100.00
51972;BME280;37991;49.662;10.060;2022-08-27T08:30:26;99096.75;;;20.37;100.00
51972;BME280;37991;49.662;10.060;2022-08-27T08:32:51;99097.44;;;20.39;100.00
51972;BME280;37991;49.662;10.060;2022-08-27T08:35:17;99098.59;;;20.37;100.00
51972;BME280;37991;49.662;10.060;2022-08-27T08:37:43;99090.53;;;20.53;100.00
51972;BME280;37991;49.662;10.060;2022-08-27T08:40:09;99095.63;;;20.63;100.00
51972;BME280;37991;49.662;10.060;2022-08-27T08:42:40;99097.47;;;20.62;100.00
51972;BME280;37991;49.662;10.060;2022-08-27T08:45:06;99101.13;;;20.61;100.00
51972;BME280;37991;49.662;10.060;2022-08-27T08:47:42;99107.84;;;20.49;100.00
51972;BME280;37991;49.662;10.060;2022-08-27T08:50:19;99099.19;;;20.55;100.00
51972;BME280;37991;49.662;10.060;2022-08-27T08:53:00;99096.03;;;20.75;99.66
51972;BME280;37991;49.662;10.060;2022-08-27T08:58:18;99099.69;;;20.74;100.00
51972;BME280;37991;49.662;10.060;2022-08-27T09:00:55;99102.22;;;20.67;100.00
51972;BME280;37991;49.662;10.060;2022-08-27T09:03:22;99100.78;;;20.64;100.00
51972;BME280;37991;49.662;10.060;2022-08-27T09:05:53;99098.13;;;20.64;100.00
51972;BME280;37991;49.662;10.060;2022-08-27T09:08:23;99093.78;;;20.63;100.00
51972;BME280;37991;49.662;10.060;2022-08-27T09:10:58;99094.78;;;20.62;100.00
51972;BME280;37991;49.662;10.060;2022-08-27T09:13:32;99097.47;;;20.62;100.00
51972;BME280;37991;49.662;10.060;2022-08-27T09:16:02;99091.78;;;20.65;100.00
51972;BME280;37991;49.662;10.060;2022-08-27T09:18:28;99095.63;;;20.63;100.00
51972;BME280;37991;49.662;10.060;2022-08-27T09:21:41;99093.63;;;20.65;100.00
51972;BME280;37991;49.662;10.060;2022-08-27T09:27:05;99089.41;;;20.71;100.00
51972;BME280;37991;49.662;10.060;2022-08-27T09:29:32;99092.19;;;20.77;100.00
51972;BME280;37991;49.662;10.060;2022-08-27T09:32:07;99091.44;;;20.83;100.00
51972;BME280;37991;49.662;10.060;2022-08-27T09:34:36;99096.06;;;20.89;100.00
51972;BME280;37991;49.662;10.060;2022-08-27T09:37:16;99087.34;;;20.96;100.00
51972;BME280;37991;49.662;10.060;2022-08-27T09:42:50;99080.19;;;20.96;100.00
51972;BME280;37991;49.662;10.060;2022-08-27T09:45:24;99081.03;;;20.97;100.00
51972;BME280;37991;49.662;10.060;2022-08-27T09:48:01;99076.25;;;20.92;100.00
51972;BME280;37991;49.662;10.060;2022-08-27T09:53:01;99070.41;;;20.97;100.00
51972;BME280;37991;49.662;10.060;2022-08-27T09:55:38;99078.53;;;20.95;100.00
51972;BME280;37991;49.662;10.060;2022-08-27T09:58:16;99074.50;;;20.99;100.00
51972;BME280;37991;49.662;10.060;2022-08-27T10:00:42;99074.88;;;20.96;100.00
51972;BME280;37991;49.662;10.060;2022-08-27T10:03:08;99074.88;;;20.96;100.00
51972;BME280;37991;49.662;10.060;2022-08-27T10:05:38;99078.38;;;20.97;100.00
51972;BME280;37991;49.662;10.060;2022-08-27T10:08:13;99071.38;;;20.96;100.00
51972;BME280;37991;49.662;10.060;2022-08-27T10:13:13;99063.50;;;21.02;100.00
51972;BME280;37991;49.662;10.060;2022-08-27T10:18:47;99062.50;;;21.03;100.00
51972;BME280;37991;49.662;10.060;2022-08-27T10:21:27;99074.44;;;21.07;100.00
51972;BME280;37991;49.662;10.060;2022-08-27T10:24:13;99073.63;;;21.07;100.00
51972;BME280;37991;49.662;10.060;2022-08-27T10:29:50;99074.09;;;21.10;100.00
51972;BME280;37991;49.662;10.060;2022-08-27T10:35:25;99076.38;;;21.13;100.00
51972;BME280;37991;49.662;10.060;2022-08-27T10:38:08;99073.22;;;20.95;100.00
51972;BME280;37991;49.662;10.060;2022-08-27T10:51:53;99084.06;;;21.08;100.00
51972;BME280;37991;49.662;10.060;2022-08-27T10:54:37;99083.72;;;21.11;100.00
51972;BME280;37991;49.662;10.060;2022-08-27T10:57:24;99086.56;;;21.10;100.00
51972;BME280;37991;49.662;10.060;2022-08-27T11:00:08;99087.28;;;21.04;100.00
51972;BME280;37991;49.662;10.060;2022-08-27T11:02:53;99084.19;;;21.15;99.35
51972;BME280;37991;49.662;10.060;2022-08-27T11:08:00;99083.91;;;21.10;100.00
51972;BME280;37991;49.662;10.060;2022-08-27T11:10:33;99086.56;;;21.10;100.00
51972;BME280;37991;49.662;10.060;2022-08-27T11:13:06;99080.06;;;21.27;100.00
51972;BME280;37991;49.662;10.060;2022-08-27T11:15:36;99086.75;;;21.08;99.76
51972;BME280;37991;49.662;10.060;2022-08-27T11:23:34;99084.81;;;21.02;100.00
51972;BME280;37991;49.662;10.060;2022-08-27T11:26:03;99078.38;;;21.11;100.00
51972;BME280;37991;49.662;10.060;2022-08-27T11:28:34;99081.03;;;20.97;100.00
51972;BME280;37991;49.662;10.060;2022-08-27T11:31:20;99080.50;;;21.01;100.00
51972;BME280;37991;49.662;10.060;2022-08-27T11:39:52;99076.97;;;20.86;100.00
51972;BME280;37991;49.662;10.060;2022-08-27T11:42:38;99080.28;;;20.88;100.00
51972;BME280;37991;49.662;10.060;2022-08-27T11:45:21;99070.28;;;20.90;100.00
51972;BME280;37991;49.662;10.060;2022-08-27T11:47:55;99080.09;;;20.89;100.00
51972;BME280;37991;49.662;10.060;2022-08-27T11:50:23;99071.56;;;20.94;100.00
51972;BME280;37991;49.662;10.060;2022-08-27T11:53:01;99067.19;;;21.01;100.00
51972;BME280;37991;49.662;10.060;2022-08-27T11:55:35;99069.69;;;21.03;100.00
51972;BME280;37991;49.662;10.060;2022-08-27T12:00:43;99066.03;;;21.19;100.00
51972;BME280;37991;49.662;10.060;2022-08-27T12:13:36;99079.66;;;21.39;100.00
51972;BME280;37991;49.662;10.060;2022-08-27T12:16:30;99078.84;;;21.38;97.37
51972;BME280;37991;49.662;10.060;2022-08-27T12:24:49;99070.00;;;21.52;94.20
51972;BME280;37991;49.662;10.060;2022-08-27T12:32:42;99074.03;;;21.78;95.40
51972;BME280;37991;49.662;10.060;2022-08-27T12:35:15;99066.03;;;21.78;94.77
51972;BME280;37991;49.662;10.060;2022-08-27T12:37:47;99059.69;;;21.79;91.96
51972;BME280;37991;49.662;10.060;2022-08-27T12:40:29;99052.16;;;21.82;93.33
51972;BME280;37991;49.662;10.060;2022-08-27T12:43:11;99060.78;;;21.85;89.95
51972;BME280;37991;49.662;10.060;2022-08-27T12:45:45;99051.22;;;21.90;89.15
51972;BME280;37991;49.662;10.060;2022-08-27T12:48:11;99055.81;;;21.96;90.22
51972;BME280;37991;49.662;10.060;2022-08-27T12:50:37;99050.47;;;21.96;90.85
51972;BME280;37991;49.662;10.060;2022-08-27T12:53:20;99048.03;;;22.01;92.09
51972;BME280;37991;49.662;10.060;2022-08-27T12:56:13;99041.72;;;22.02;91.09
51972;BME280;37991;49.662;10.060;2022-08-27T13:04:38;99031.88;;;22.18;90.33
51972;BME280;37991;49.662;10.060;2022-08-27T13:07:05;99036.34;;;22.17;90.93
51972;BME280;37991;49.662;10.060;2022-08-27T13:09:33;99038.09;;;22.10;88.80
51972;BME280;37991;49.662;10.060;2022-08-27T13:12:01;99036.56;;;22.16;87.81
51972;BME280;37991;49.662;10.060;2022-08-27T13:14:35;99037.41;;;22.38;86.08
51972;BME280;37991;49.662;10.060;2022-08-27T13:19:46;99039.28;;;22.22;85.92
51972;BME280;37991;49.662;10.060;2022-08-27T13:22:23;99042.03;;;22.14;85.36
51972;BME280;37991;49.662;10.060;2022-08-27T13:24:51;99037.66;;;22.21;85.58
51972;BME280;37991;49.662;10.060;2022-08-27T13:27:23;99038.84;;;22.19;84.40
51972;BME280;37991;49.662;10.060;2022-08-27T13:29:49;99030.63;;;22.20;85.62
51972;BME280;37991;49.662;10.060;2022-08-27T13:32:16;99021.94;;;22.33;84.91
51972;BME280;37991;49.662;10.060;2022-08-27T13:34:41;99022.53;;;22.28;86.78
51972;BME280;37991;49.662;10.060;2022-08-27T13:37:34;99033.13;;;22.22;88.09
51972;BME280;37991;49.662;10.060;2022-08-27T13:40:00;99032.81;;;22.32;84.76
51972;BME280;37991;49.662;10.060;2022-08-27T13:42:26;99023.41;;;22.36;84.91
51972;BME280;37991;49.662;10.060;2022-08-27T13:44:53;99012.69;;;22.29;85.97
51972;BME280;37991;49.662;10.060;2022-08-27T13:47:26;99016.00;;;22.31;86.26
51972;BME280;37991;49.662;10.060;2022-08-27T13:50:04;99024.75;;;22.46;84.87
51972;BME280;37991;49.662;10.060;2022-08-27T13:52:36;99028.03;;;22.48;85.21
51972;BME280;37991;49.662;10.060;2022-08-27T13:55:26;99032.94;;;22.45;86.25
51972;BME280;37991;49.662;10.060;2022-08-27T13:57:52;99035.94;;;22.35;85.42
51972;BME280;37991;49.662;10.060;2022-08-27T14:00:30;99036.44;;;22.24;85.33
51972;BME280;37991;49.662;10.060;2022-08-27T14:02:56;99029.72;;;22.28;85.88
51972;BME280;37991;49.662;10.060;2022-08-27T14:07:52;99022.59;;;22.35;86.44
51972;BME280;37991;49.662;10.060;2022-08-27T14:10:37;99029.72;;;22.49;84.92
51972;BME280;37991;49.662;10.060;2022-08-27T14:13:07;99032.94;;;22.66;83.09
51972;BME280;37991;49.662;10.060;2022-08-27T14:15:37;99035.94;;;22.57;83.65